ADDS METAR Data

Data at: 1836 UTC 20 Jul 2018

METAR for:KPWM (Portland Intl, ME, US)
Text:KPWM 201751Z 15010KT 10SM FEW065 26/13 A3018 RMK AO2 SLP220 T02560128 10272 20194 58005
Temperature: 25.6°C ( 78°F)
Dewpoint: 12.8°C ( 55°F) [RH = 45%]
Pressure (altimeter):30.18 inches Hg (1022.1 mb) [Sea level pressure: 1022.0 mb]
Winds:from the SSE (150 degrees) at 12 MPH (10 knots; 5.1 m/s)
Visibility:10 or more sm (16+ km)
Ceiling:at least 12,000 feet AGL
Clouds: few clouds at 6500 feet AGL